Time;durP1;ratioP1;P1;durP2;ratioP2;P2;SDS_P1;SDS_P2;PMS_P1;PMS_P2;Temp;Humidity;BMP_temperature;BMP_pressure;BME280_temperature;BME280_humidity;BME280_pressure;Samples;Min_cycle;Max_cycle;Signal;HPM_P1;HPM_P2
2021/04/11 00:01:19;;;;;;;21.83;14.50;;;;;;;-145.19;100.00;59999.88;5006147;28;20034;-69
2021/04/11 00:03:45;;;;;;;24.83;13.13;;;;;;;-145.19;100.00;59999.88;5009312;28;20052;-69
2021/04/11 00:06:11;;;;;;;21.10;11.60;;;;;;;-145.19;100.00;59999.88;5008299;28;20076;-69
2021/04/11 00:08:37;;;;;;;23.05;12.13;;;;;;;-145.19;100.00;59999.88;5005365;28;20046;-69
2021/04/11 00:11:03;;;;;;;23.30;12.27;;;;;;;-145.19;100.00;59999.88;5013547;28;20042;-69
2021/04/11 00:13:34;;;;;;;22.05;11.88;;;;;;;-145.19;100.00;59999.88;5019913;28;20058;-70
2021/04/11 00:16:02;;;;;;;19.00;11.98;;;;;;;-145.19;100.00;59999.88;5006154;28;20550;-69
2021/04/11 00:18:29;;;;;;;24.10;12.95;;;;;;;-145.19;100.00;59999.88;5002019;28;20129;-69
2021/04/11 00:20:56;;;;;;;20.52;12.43;;;;;;;-145.19;100.00;59999.88;5007273;28;20048;-70
2021/04/11 00:23:24;;;;;;;16.98;11.75;;;;;;;-145.19;100.00;59999.88;5004580;28;20129;-69
2021/04/11 00:25:50;;;;;;;;;;;;;;;-145.19;100.00;59999.88;5006987;28;20046;-70
2021/04/11 00:28:17;;;;;;;20.23;12.63;;;;;;;-145.19;100.00;59999.88;5006149;28;19929;-70
2021/04/11 00:30:44;;;;;;;19.40;12.50;;;;;;;-145.19;100.00;59999.88;5006085;28;20146;-70
2021/04/11 00:33:28;;;;;;;17.60;12.27;;;;;;;-145.19;100.00;59999.88;5006477;28;20100;-70
2021/04/11 00:36:00;;;;;;;24.15;13.07;;;;;;;-145.19;100.00;59999.88;5002927;28;21538;-69
2021/04/11 00:38:28;;;;;;;18.42;11.63;;;;;;;-145.19;100.00;59999.88;5005129;28;20072;-69
2021/04/11 00:40:57;;;;;;;20.90;12.30;;;;;;;-145.19;100.00;59999.88;5006176;28;20070;-69
2021/04/11 00:43:25;;;;;;;19.52;13.20;;;;;;;-145.19;100.00;59999.88;5007151;28;20073;-70
2021/04/11 00:46:28;;;;;;;21.90;11.77;;;;;;;-145.19;100.00;59999.88;5004945;28;20041;-69
2021/04/11 00:48:54;;;;;;;17.35;10.77;;;;;;;-145.19;100.00;59999.88;5009136;28;20112;-69
2021/04/11 00:51:25;;;;;;;14.63;9.75;;;;;;;-145.19;100.00;59999.88;5006843;28;20447;-69
2021/04/11 00:53:57;;;;;;;14.50;9.18;;;;;;;-145.19;100.00;59999.88;4996683;28;20038;-69
2021/04/11 00:56:24;;;;;;;16.10;9.45;;;;;;;-145.19;100.00;59999.88;5010507;28;20057;-69
2021/04/11 00:58:50;;;;;;;14.55;9.07;;;;;;;-145.19;100.00;59999.88;5004352;28;20050;-69
2021/04/11 01:01:16;;;;;;;15.85;9.80;;;;;;;-145.19;100.00;59999.88;5012288;28;20498;-69
2021/04/11 01:03:43;;;;;;;19.45;10.18;;;;;;;-145.19;100.00;59999.88;5009063;28;20177;-69
2021/04/11 01:06:14;;;;;;;14.82;10.50;;;;;;;-145.19;100.00;59999.88;5004653;28;20750;-69
2021/04/11 01:08:42;;;;;;;15.95;10.77;;;;;;;-145.19;100.00;59999.88;5012299;28;20042;-69
2021/04/11 01:11:17;;;;;;;18.30;11.98;;;;;;;-145.19;100.00;59999.88;5008912;28;20045;-69
2021/04/11 01:13:47;;;;;;;20.00;11.98;;;;;;;-145.19;100.00;59999.88;5021454;28;20046;-70
2021/04/11 01:16:16;;;;;;;18.52;12.45;;;;;;;-145.19;100.00;59999.88;5007042;28;20038;-71
2021/04/11 01:18:43;;;;;;;17.77;12.48;;;;;;;-145.19;100.00;59999.88;5008037;28;20073;-70
2021/04/11 01:21:23;;;;;;;21.27;12.68;;;;;;;-145.19;100.00;59999.88;5011190;28;20504;-70
2021/04/11 01:23:57;;;;;;;17.30;10.52;;;;;;;-145.19;100.00;59999.88;5009927;28;20053;-70
2021/04/11 01:26:26;;;;;;;21.52;11.43;;;;;;;-145.19;100.00;59999.88;5022268;28;20145;-69
2021/04/11 01:28:54;;;;;;;18.65;11.30;;;;;;;-145.19;100.00;59999.88;5003362;28;20053;-71
2021/04/11 01:31:21;;;;;;;21.40;11.48;;;;;;;-145.19;100.00;59999.88;5016022;28;20048;-69
2021/04/11 01:33:52;;;;;;;17.55;10.73;;;;;;;-145.19;100.00;59999.88;5020085;28;20046;-70
2021/04/11 01:36:24;;;;;;;16.98;10.85;;;;;;;-145.19;100.00;59999.88;5005541;28;20084;-70
2021/04/11 01:38:53;;;;;;;17.00;11.27;;;;;;;-145.19;100.00;59999.88;5024848;28;20074;-69
2021/04/11 01:41:22;;;;;;;;;;;;;;;-145.19;100.00;59999.88;5022431;28;20042;-69
2021/04/11 01:43:49;;;;;;;;;;;;;;;-145.19;100.00;59999.88;5010725;28;20266;-69
2021/04/11 01:46:16;;;;;;;20.02;11.07;;;;;;;-145.19;100.00;59999.88;5006477;28;19967;-70
2021/04/11 01:48:44;;;;;;;19.65;10.95;;;;;;;-145.19;100.00;59999.88;5025198;28;20048;-69
2021/04/11 01:51:13;;;;;;;18.55;11.30;;;;;;;-145.19;100.00;59999.88;5008053;28;20041;-71
2021/04/11 01:53:42;;;;;;;17.50;11.45;;;;;;;-145.19;100.00;59999.88;5009975;28;20068;-69
2021/04/11 01:56:11;;;;;;;15.70;11.05;;;;;;;-145.19;100.00;59999.88;5008287;28;20460;-70
2021/04/11 01:58:39;;;;;;;13.57;10.35;;;;;;;-145.19;100.00;59999.88;5012872;28;20052;-69
2021/04/11 02:01:29;;;;;;;16.92;9.63;;;;;;;-145.19;100.00;59999.88;5002717;28;20042;-69
2021/04/11 02:03:58;;;;;;;19.45;11.65;;;;;;;-145.19;100.00;59999.88;5006054;28;20053;-70
2021/04/11 02:06:26;;;;;;;17.42;10.80;;;;;;;-145.19;100.00;59999.88;5010069;28;20141;-70
2021/04/11 02:09:04;;;;;;;12.90;9.18;;;;;;;-145.19;100.00;59999.88;5005773;28;20446;-69
2021/04/11 02:11:37;;;;;;;14.02;9.60;;;;;;;-145.19;100.00;59999.88;5022215;28;20038;-70
2021/04/11 02:14:04;;;;;;;12.45;8.93;;;;;;;-145.19;100.00;59999.88;4991780;28;20046;-70
2021/04/11 02:16:33;;;;;;;15.43;8.75;;;;;;;-145.19;100.00;59999.88;5009835;28;20084;-69
2021/04/11 02:19:15;;;;;;;14.55;9.15;;;;;;;-145.19;100.00;59999.88;5007530;28;20085;-69
2021/04/11 02:21:47;;;;;;;13.38;9.32;;;;;;;-145.19;100.00;59999.88;5020208;28;20066;-70
2021/04/11 02:24:14;;;;;;;14.52;9.02;;;;;;;-145.19;100.00;59999.88;5009489;28;20532;-69
2021/04/11 02:26:41;;;;;;;15.85;9.60;;;;;;;-145.19;100.00;59999.88;5013022;28;20049;-69
2021/04/11 02:29:14;;;;;;;11.93;8.80;;;;;;;-145.19;100.00;59999.88;5006176;28;20034;-69
2021/04/11 02:31:41;;;;;;;17.83;9.10;;;;;;;-145.19;100.00;59999.88;5005901;28;20026;-69
2021/04/11 02:34:23;;;;;;;14.70;8.70;;;;;;;-145.19;100.00;59999.88;5005719;28;20128;-69
2021/04/11 02:36:55;;;;;;;16.48;9.88;;;;;;;-145.19;100.00;59999.88;5008790;28;20053;-69
2021/04/11 02:39:26;;;;;;;13.43;9.23;;;;;;;-145.19;100.00;59999.88;5003875;28;20061;-69
2021/04/11 02:41:55;;;;;;;14.20;9.45;;;;;;;-145.19;100.00;59999.88;5008046;28;20048;-69
2021/04/11 02:44:24;;;;;;;11.10;7.63;;;;;;;-145.19;100.00;59999.88;5008645;28;20038;-69
2021/04/11 02:46:51;;;;;;;14.02;8.50;;;;;;;-145.19;100.00;59999.88;5000423;28;20051;-69
2021/04/11 02:49:21;;;;;;;11.15;8.00;;;;;;;-145.19;100.00;59999.88;5011948;28;20048;-69
2021/04/11 02:51:50;;;;;;;13.85;8.52;;;;;;;-145.19;100.00;59999.88;5010127;28;20450;-69
2021/04/11 02:54:22;;;;;;;16.75;9.40;;;;;;;-145.19;100.00;59999.88;5011426;28;20050;-69
2021/04/11 02:56:53;;;;;;;12.55;8.02;;;;;;;-145.19;100.00;59999.88;5010257;28;20050;-70
2021/04/11 02:59:28;;;;;;;14.63;8.93;;;;;;;-145.19;100.00;59999.88;5000680;28;20126;-69
2021/04/11 03:02:02;;;;;;;14.70;8.75;;;;;;;-145.19;100.00;59999.88;5008691;28;20466;-69
2021/04/11 03:04:28;;;;;;;14.73;9.73;;;;;;;-145.19;100.00;59999.88;5010944;28;20042;-69
2021/04/11 03:07:05;;;;;;;14.30;9.13;;;;;;;-145.19;100.00;59999.88;5004919;28;20078;-69
2021/04/11 03:09:47;;;;;;;14.55;8.77;;;;;;;-145.19;100.00;59999.88;5008498;28;20050;-69
2021/04/11 03:12:19;;;;;;;16.25;8.20;;;;;;;-145.19;100.00;59999.88;5011384;28;20031;-69
2021/04/11 03:14:46;;;;;;;;;;;;;;;-145.19;100.00;59999.88;5011027;28;20132;-69
2021/04/11 03:17:21;;;;;;;12.55;7.72;;;;;;;-145.19;100.00;59999.88;5012843;28;20377;-69
2021/04/11 03:19:56;;;;;;;13.50;8.52;;;;;;;-145.19;100.00;59999.88;5009093;28;20045;-69
2021/04/11 03:22:22;;;;;;;14.05;10.05;;;;;;;-145.19;100.00;59999.88;5004329;28;20040;-69
2021/04/11 03:24:51;;;;;;;15.32;9.20;;;;;;;-145.19;100.00;59999.88;5010782;28;20048;-70
2021/04/11 03:27:29;;;;;;;15.70;10.18;;;;;;;-145.19;100.00;59999.88;5007001;28;20045;-69
2021/04/11 03:30:06;;;;;;;13.90;9.77;;;;;;;-145.19;100.00;59999.88;5006684;28;20043;-69
2021/04/11 03:32:38;;;;;;;15.43;9.95;;;;;;;-145.19;100.00;59999.88;5008079;28;20038;-70
2021/04/11 03:35:10;;;;;;;19.33;10.93;;;;;;;-145.19;100.00;59999.88;5008438;28;20042;-69
2021/04/11 03:37:41;;;;;;;12.90;9.50;;;;;;;-145.19;100.00;59999.88;5017684;28;20055;-69
2021/04/11 03:40:21;;;;;;;13.85;8.90;;;;;;;-145.19;100.00;59999.88;5012607;28;20561;-69
2021/04/11 03:42:50;;;;;;;12.85;8.52;;;;;;;-145.19;100.00;59999.88;5010023;28;20042;-70
2021/04/11 03:45:19;;;;;;;12.00;9.15;;;;;;;-145.19;100.00;59999.88;5006909;28;20375;-70
2021/04/11 03:48:00;;;;;;;13.55;9.50;;;;;;;-145.19;100.00;59999.88;5007934;28;20387;-70
2021/04/11 03:50:29;;;;;;;;;;;;;;;-145.19;100.00;59999.88;5007738;28;20072;-69
2021/04/11 03:53:30;;;;;;;13.23;9.10;;;;;;;-145.19;100.00;59999.88;5007236;28;19928;-70
2021/04/11 03:56:04;;;;;;;17.73;9.27;;;;;;;-145.19;100.00;59999.88;5022775;28;20099;-70
2021/04/11 03:58:40;;;;;;;16.88;10.00;;;;;;;-145.19;100.00;59999.88;5004661;28;20148;-69
2021/04/11 04:01:21;;;;;;;13.05;9.10;;;;;;;-145.19;100.00;59999.88;5014864;28;20061;-69
2021/04/11 04:03:51;;;;;;;14.25;9.57;;;;;;;-145.19;100.00;59999.88;5019847;28;20093;-69
2021/04/11 04:06:27;;;;;;;16.27;10.65;;;;;;;-145.19;100.00;59999.88;5005329;28;20390;-69
2021/04/11 04:08:54;;;;;;;15.88;10.40;;;;;;;-145.19;100.00;59999.88;5014627;28;20454;-69
2021/04/11 04:11:43;;;;;;;19.88;10.77;;;;;;;-145.19;100.00;59999.88;5003791;28;20096;-69
2021/04/11 04:14:46;;;;;;;18.05;10.80;;;;;;;-145.19;100.00;59999.88;5005694;28;20049;-69
2021/04/11 04:17:28;;;;;;;14.82;10.00;;;;;;;-145.19;100.00;59999.88;4999383;28;20058;-70
2021/04/11 04:19:56;;;;;;;24.10;14.13;;;;;;;-145.19;100.00;59999.88;5000289;28;20667;-70
2021/04/11 04:22:55;;;;;;;16.27;10.18;;;;;;;-145.19;100.00;59999.88;5018283;28;20069;-69
2021/04/11 04:25:37;;;;;;;16.45;11.13;;;;;;;-145.19;100.00;59999.88;5003378;28;20045;-70
2021/04/11 04:28:21;;;;;;;15.35;10.27;;;;;;;-145.19;100.00;59999.88;5004798;28;20049;-70
2021/04/11 04:31:04;;;;;;;14.88;9.52;;;;;;;-145.19;100.00;59999.88;5000722;28;20061;-69
2021/04/11 04:33:41;;;;;;;16.60;9.75;;;;;;;-145.19;100.00;59999.88;5024034;28;20455;-69
2021/04/11 04:36:18;;;;;;;14.85;9.93;;;;;;;-145.19;100.00;59999.88;5019370;28;20053;-69
2021/04/11 04:39:04;;;;;;;18.17;11.35;;;;;;;-145.19;100.00;59999.88;5011807;28;20360;-70
2021/04/11 04:41:51;;;;;;;14.90;9.95;;;;;;;-145.19;100.00;59999.88;5012080;28;20053;-70
2021/04/11 04:44:33;;;;;;;17.27;9.23;;;;;;;-145.19;100.00;59999.88;5004421;28;20129;-69
2021/04/11 04:47:09;;;;;;;18.73;10.30;;;;;;;-145.19;100.00;59999.88;5004657;28;20033;-69
2021/04/11 04:50:02;;;;;;;20.08;12.65;;;;;;;-145.19;100.00;59999.88;5007186;28;20497;-70
2021/04/11 04:52:34;;;;;;;15.57;8.27;;;;;;;-145.19;100.00;59999.88;5006989;28;20027;-69
2021/04/11 04:55:01;;;;;;;;;;;;;;;-145.19;100.00;59999.88;5007507;28;20042;-70
2021/04/11 04:57:46;;;;;;;11.68;7.53;;;;;;;-145.19;100.00;59999.88;5011127;28;19968;-70
2021/04/11 05:00:19;;;;;;;14.95;9.43;;;;;;;-145.19;100.00;59999.88;5008473;28;20085;-69
2021/04/11 05:03:06;;;;;;;14.88;9.18;;;;;;;-145.19;100.00;59999.88;5012451;28;20050;-69
2021/04/11 05:05:45;;;;;;;18.40;10.32;;;;;;;-145.19;100.00;59999.88;5007981;28;20057;-69
2021/04/11 05:08:23;;;;;;;;;;;;;;;-145.19;100.00;59999.88;5008530;28;20045;-69
2021/04/11 05:11:08;;;;;;;17.25;8.35;;;;;;;-145.19;100.00;59999.88;5007301;28;19922;-69
2021/04/11 05:13:46;;;;;;;13.02;8.48;;;;;;;-145.19;100.00;59999.88;5008059;28;20048;-69
2021/04/11 05:16:34;;;;;;;54.80;30.27;;;;;;;-145.19;100.00;59999.88;5008648;28;20050;-70
2021/04/11 05:19:10;;;;;;;31.10;18.33;;;;;;;-145.19;100.00;59999.88;5011359;28;20110;-69
2021/04/11 05:22:05;;;;;;;;;;;;;;;-145.19;100.00;59999.88;5000986;28;20527;-69
2021/04/11 05:24:41;;;;;;;22.33;14.60;;;;;;;-145.19;100.00;59999.88;5007209;28;20306;-69
2021/04/11 05:27:20;;;;;;;16.88;10.80;;;;;;;-145.19;100.00;59999.88;5009196;28;20140;-70
2021/04/11 05:30:33;;;;;;;14.07;10.20;;;;;;;-145.19;100.00;59999.88;5006388;28;20101;-69
2021/04/11 05:32:59;;;;;;;12.65;9.57;;;;;;;-145.19;100.00;59999.88;5008108;28;20476;-70
2021/04/11 05:35:25;;;;;;;13.75;8.65;;;;;;;-145.19;100.00;59999.88;5007420;28;20081;-70
2021/04/11 05:38:14;;;;;;;11.55;8.85;;;;;;;-145.19;100.00;59999.88;5011228;28;20095;-70
2021/04/11 05:40:44;;;;;;;;;;;;;;;-145.19;100.00;59999.88;5014666;28;20053;-70
2021/04/11 05:43:16;;;;;;;;;;;;;;;-145.19;100.00;59999.88;5008588;28;20023;-69
2021/04/11 05:45:43;;;;;;;12.57;7.45;;;;;;;-145.19;100.00;59999.88;5010475;28;19922;-68
2021/04/11 05:48:30;;;;;;;10.73;7.47;;;;;;;-145.19;100.00;59999.88;5008349;28;20053;-68
2021/04/11 05:51:02;;;;;;;11.27;7.60;;;;;;;-145.19;100.00;59999.88;5019629;28;20061;-68
2021/04/11 05:53:56;;;;;;;13.52;8.95;;;;;;;-145.19;100.00;59999.88;5009950;28;20073;-68
2021/04/11 05:56:32;;;;;;;12.90;8.20;;;;;;;-145.19;100.00;59999.88;5007504;28;20057;-68
2021/04/11 05:59:03;;;;;;;17.25;9.70;;;;;;;-145.19;100.00;59999.88;5008912;28;20042;-70
2021/04/11 06:01:59;;;;;;;11.30;8.25;;;;;;;-145.19;100.00;59999.88;5006492;28;20041;-68
2021/04/11 06:04:34;;;;;;;13.75;8.95;;;;;;;-145.19;100.00;59999.88;5010703;28;20048;-68
2021/04/11 06:07:07;;;;;;;12.65;8.70;;;;;;;-145.19;100.00;59999.88;5008883;28;20058;-69
2021/04/11 06:09:43;;;;;;;13.50;9.00;;;;;;;-145.19;100.00;59999.88;5006096;28;20065;-68
2021/04/11 06:12:39;;;;;;;13.68;9.15;;;;;;;-145.19;100.00;59999.88;5009443;28;20034;-68
2021/04/11 06:15:08;;;;;;;14.10;9.27;;;;;;;-145.19;100.00;59999.88;5013196;28;20153;-70
2021/04/11 06:17:36;;;;;;;15.18;8.65;;;;;;;-145.19;100.00;59999.88;5008584;28;20042;-69
2021/04/11 06:20:04;;;;;;;;;;;;;;;-145.19;100.00;59999.88;5008109;28;20148;-67
2021/04/11 06:22:42;;;;;;;12.18;8.25;;;;;;;-145.19;100.00;59999.88;5018764;28;20024;-67
2021/04/11 06:25:38;;;;;;;14.15;7.90;;;;;;;-145.19;100.00;59999.88;5006817;28;20054;-69
2021/04/11 06:28:21;;;;;;;31.52;6.97;;;;;;;-145.19;100.00;59999.88;5012519;28;20064;-68
2021/04/11 06:30:58;;;;;;;9.15;6.85;;;;;;;-145.19;100.00;59999.88;5007786;28;20374;-68
2021/04/11 06:33:29;;;;;;;11.60;5.50;;;;;;;-145.19;100.00;59999.88;5006752;28;20429;-66
2021/04/11 06:36:07;;;;;;;14.75;7.20;;;;;;;-145.19;100.00;59999.88;5005529;28;20046;-71
2021/04/11 06:38:39;;;;;;;9.32;6.38;;;;;;;-145.19;100.00;59999.88;5008548;28;20129;-71
2021/04/11 06:41:59;;;;;;;9.80;7.05;;;;;;;-145.19;100.00;59999.88;5010306;28;20668;-71
2021/04/11 06:44:45;;;;;;;8.93;5.27;;;;;;;-145.19;100.00;59999.88;4999699;28;20301;-70
2021/04/11 06:47:28;;;;;;;11.95;6.38;;;;;;;-145.19;100.00;59999.88;4990983;28;20283;-70
2021/04/11 06:50:24;;;;;;;13.10;6.57;;;;;;;-145.19;100.00;59999.88;5000379;28;20063;-70
2021/04/11 06:53:15;;;;;;;9.20;5.85;;;;;;;-145.19;100.00;59999.88;5007494;28;20052;-69
2021/04/11 06:55:45;;;;;;;7.88;5.53;;;;;;;-145.19;100.00;59999.88;5005418;28;20708;-70
2021/04/11 06:58:24;;;;;;;11.73;5.32;;;;;;;-145.19;100.00;59999.88;4999261;28;20101;-71
2021/04/11 07:01:28;;;;;;;13.02;6.10;;;;;;;-145.19;100.00;59999.88;5003744;28;20557;-70
2021/04/11 07:04:22;;;;;;;8.63;5.78;;;;;;;-145.19;100.00;59999.88;5003902;28;20046;-71
2021/04/11 07:07:07;;;;;;;9.10;6.13;;;;;;;-145.19;100.00;59999.88;5002289;28;20076;-70
2021/04/11 07:09:55;;;;;;;9.98;6.00;;;;;;;-145.19;100.00;59999.88;5006266;28;20486;-72
2021/04/11 07:12:42;;;;;;;10.60;5.57;;;;;;;-145.19;100.00;59999.88;4999157;28;20119;-71
2021/04/11 07:15:09;;;;;;;15.95;6.00;;;;;;;-145.19;100.00;59999.88;5019243;28;20049;-71
2021/04/11 07:17:38;;;;;;;11.02;5.30;;;;;;;-145.19;100.00;59999.88;5001235;28;20052;-71
2021/04/11 07:20:10;;;;;;;8.27;4.75;;;;;;;-145.19;100.00;59999.88;5007579;28;20124;-72
2021/04/11 07:22:55;;;;;;;8.45;4.88;;;;;;;-145.19;100.00;59999.88;5002589;28;20061;-69
2021/04/11 07:25:51;;;;;;;6.32;4.53;;;;;;;-145.19;100.00;59999.88;5002806;28;20363;-72
2021/04/11 07:28:23;;;;;;;6.53;4.50;;;;;;;-145.19;100.00;59999.88;5007661;28;20054;-72
2021/04/11 07:30:59;;;;;;;7.95;3.92;;;;;;;-145.19;100.00;59999.88;5006379;28;20053;-71
2021/04/11 07:33:48;;;;;;;6.88;3.70;;;;;;;-145.19;100.00;59999.88;5012063;28;20065;-71
2021/04/11 07:36:20;;;;;;;;;;;;;;;-145.19;100.00;59999.88;5006371;28;20144;-72
2021/04/11 07:39:05;;;;;;;5.07;3.75;;;;;;;-145.19;100.00;59999.88;5022337;28;19957;-71
2021/04/11 07:41:42;;;;;;;5.88;3.55;;;;;;;-145.19;100.00;59999.88;5010157;28;20058;-71
2021/04/11 07:44:14;;;;;;;5.15;3.40;;;;;;;-145.19;100.00;59999.88;5004092;28;20136;-71
2021/04/11 07:47:17;;;;;;;6.03;3.60;;;;;;;-145.19;100.00;59999.88;5005696;28;20103;-71
2021/04/11 07:49:58;;;;;;;9.75;3.08;;;;;;;-145.19;100.00;59999.88;5006200;28;20553;-57
2021/04/11 07:52:46;;;;;;;6.32;2.90;;;;;;;-145.19;100.00;59999.88;4999971;28;20038;-54
2021/04/11 07:55:19;;;;;;;4.00;3.15;;;;;;;-145.19;100.00;59999.88;4999435;28;20069;-56
2021/04/11 07:58:07;;;;;;;3.80;2.58;;;;;;;-145.19;100.00;59999.88;5007261;28;20044;-54
2021/04/11 08:00:36;;;;;;;5.55;3.00;;;;;;;-145.19;100.00;59999.88;5007222;28;20066;-54
2021/04/11 08:03:26;;;;;;;4.65;3.10;;;;;;;-145.19;100.00;59999.88;5005064;28;20038;-58
2021/04/11 08:06:11;;;;;;;3.85;2.67;;;;;;;-145.19;100.00;59999.88;5004486;28;20050;-57
2021/04/11 08:09:08;;;;;;;3.75;3.03;;;;;;;-145.19;100.00;59999.88;5003604;28;20425;-55
2021/04/11 08:11:48;;;;;;;4.45;2.65;;;;;;;-145.19;100.00;59999.88;5004041;28;20042;-57
2021/04/11 08:14:37;;;;;;;3.60;2.50;;;;;;;-145.19;100.00;59999.88;4999233;28;20536;-58
2021/04/11 08:17:26;;;;;;;6.03;2.33;;;;;;;-145.19;100.00;59999.88;5001634;28;20378;-55
2021/04/11 08:20:02;;;;;;;3.55;2.33;;;;;;;-145.19;100.00;59999.88;5000323;28;20684;-54
2021/04/11 08:22:49;;;;;;;3.58;2.63;;;;;;;-145.19;100.00;59999.88;5010095;28;20058;-62
2021/04/11 08:25:39;;;;;;;4.45;2.47;;;;;;;-145.19;100.00;59999.88;5004894;28;20076;-55
2021/04/11 08:28:37;;;;;;;3.55;2.22;;;;;;;-145.19;100.00;59999.88;5009221;28;20069;-58
2021/04/11 08:31:13;;;;;;;4.47;2.33;;;;;;;-145.19;100.00;59999.88;5015508;28;20081;-58
2021/04/11 08:34:07;;;;;;;3.63;2.05;;;;;;;-145.19;100.00;59999.88;5027153;28;20042;-55
2021/04/11 08:37:15;;;;;;;9.32;2.30;;;;;;;-145.19;100.00;59999.88;5005535;28;20051;-59
2021/04/11 08:40:09;;;;;;;3.28;2.10;;;;;;;-145.19;100.00;59999.88;4982794;28;20510;-63
2021/04/11 08:42:57;;;;;;;5.90;2.28;;;;;;;-145.19;100.00;59999.88;5011290;28;20042;-57
2021/04/11 08:45:45;;;;;;;3.97;2.53;;;;;;;-145.19;100.00;59999.88;5005244;28;20042;-57
2021/04/11 08:48:32;;;;;;;6.22;2.20;;;;;;;-145.19;100.00;59999.88;5007145;28;20613;-53
2021/04/11 08:51:12;;;;;;;3.15;2.15;;;;;;;-145.19;100.00;59999.88;5010336;28;20042;-58
2021/04/11 08:53:43;;;;;;;2.72;1.95;;;;;;;-145.19;100.00;59999.88;5010661;28;20029;-54
2021/04/11 08:56:40;;;;;;;4.55;2.15;;;;;;;-145.19;100.00;59999.88;5004298;28;20049;-57
2021/04/11 08:59:32;;;;;;;5.25;2.25;;;;;;;-145.19;100.00;59999.88;5007597;28;20081;-55
2021/04/11 09:02:16;;;;;;;4.72;2.35;;;;;;;-145.19;100.00;59999.88;5010648;28;20053;-54
2021/04/11 09:05:01;;;;;;;2.85;2.13;;;;;;;-145.19;100.00;59999.88;5009739;28;20056;-55
2021/04/11 09:07:31;;;;;;;22.65;4.05;;;;;;;-145.19;100.00;59999.88;5008037;28;20134;-57
2021/04/11 09:10:11;;;;;;;2.50;2.05;;;;;;;-145.19;100.00;59999.88;5008146;28;20062;-57
2021/04/11 09:12:45;;;;;;;4.72;2.03;;;;;;;-145.19;100.00;59999.88;5003623;28;20050;-56
2021/04/11 09:15:33;;;;;;;3.08;1.83;;;;;;;-145.19;100.00;59999.88;5005108;28;20144;-59
2021/04/11 09:18:20;;;;;;;3.47;2.10;;;;;;;-145.19;100.00;59999.88;5007741;28;20050;-58
2021/04/11 09:21:08;;;;;;;;;;;;;;;-145.19;100.00;59999.88;5004537;28;20052;-56
2021/04/11 09:23:57;;;;;;;2.40;1.65;;;;;;;-145.19;100.00;59999.88;5005392;28;19975;-57
2021/04/11 09:26:42;;;;;;;2.55;2.15;;;;;;;-145.19;100.00;59999.88;5008423;28;20129;-69
2021/04/11 09:29:48;;;;;;;2.67;1.63;;;;;;;-145.19;100.00;59999.88;5024604;28;20042;-58
2021/04/11 09:32:23;;;;;;;4.65;1.70;;;;;;;-145.19;100.00;59999.88;5008423;28;20641;-58
2021/04/11 09:35:17;;;;;;;8.35;2.33;;;;;;;-145.19;100.00;59999.88;5000553;28;20045;-54
2021/04/11 09:38:28;;;;;;;4.05;1.40;;;;;;;-145.19;100.00;59999.88;5006378;28;20050;-56
2021/04/11 09:41:43;;;;;;;2.90;1.80;;;;;;;-145.19;100.00;59999.88;4996119;28;20050;-61
2021/04/11 09:44:27;;;;;;;4.13;1.63;;;;;;;-145.19;100.00;59999.88;5007745;28;20059;-54
2021/04/11 09:47:10;;;;;;;2.72;1.98;;;;;;;-145.19;100.00;59999.88;5000125;28;20042;-55
2021/04/11 09:50:23;;;;;;;2.47;1.60;;;;;;;-145.19;100.00;59999.88;5002727;28;20049;-58
2021/04/11 09:53:09;;;;;;;4.82;2.30;;;;;;;-145.19;100.00;59999.88;4946567;28;20043;-57
2021/04/11 09:55:41;;;;;;;9.73;5.93;;;;;;;-145.19;100.00;59999.88;5002248;28;20061;-57
2021/04/11 09:58:41;;;;;;;4.35;2.30;;;;;;;-145.19;100.00;59999.88;5003403;28;20046;-59
2021/04/11 10:01:43;;;;;;;10.38;1.38;;;;;;;-145.19;100.00;59999.88;5004265;28;20115;-57
2021/04/11 10:04:30;;;;;;;1.70;1.20;;;;;;;-145.19;100.00;59999.88;5002583;28;20138;-57
2021/04/11 10:07:14;;;;;;;3.38;0.95;;;;;;;-145.19;100.00;59999.88;5007793;28;20064;-58
2021/04/11 10:09:48;;;;;;;4.50;1.40;;;;;;;-145.19;100.00;59999.88;5000988;28;20064;-59
2021/04/11 10:12:39;;;;;;;2.95;1.35;;;;;;;-145.19;100.00;59999.88;5003344;28;20113;-58
2021/04/11 10:15:47;;;;;;;3.90;1.40;;;;;;;-145.19;100.00;59999.88;5002124;28;20125;-56
2021/04/11 10:18:39;;;;;;;4.70;1.40;;;;;;;-145.19;100.00;59999.88;5004158;28;20038;-59
2021/04/11 10:21:26;;;;;;;2.10;1.25;;;;;;;-145.19;100.00;59999.88;4999201;28;20038;-54
2021/04/11 10:23:55;;;;;;;1.40;1.27;;;;;;;-145.19;100.00;59999.88;5005695;28;20075;-59
2021/04/11 10:26:28;;;;;;;2.78;1.40;;;;;;;-145.19;100.00;59999.88;5006902;28;20121;-58
2021/04/11 10:29:04;;;;;;;6.10;1.30;;;;;;;-145.19;100.00;59999.88;5005202;28;20088;-59
2021/04/11 10:31:57;;;;;;;1.63;1.00;;;;;;;-145.19;100.00;59999.88;5001884;28;20061;-60
2021/04/11 10:34:54;;;;;;;1.65;1.00;;;;;;;-145.19;100.00;59999.88;5003485;28;20078;-60
2021/04/11 10:37:44;;;;;;;12.40;1.52;;;;;;;-145.19;100.00;59999.88;5001307;28;20046;-59
2021/04/11 10:40:47;;;;;;;1.55;0.80;;;;;;;-145.19;100.00;59999.88;5000323;28;20090;-60
2021/04/11 10:43:20;;;;;;;2.40;0.90;;;;;;;-145.19;100.00;59999.88;4999549;28;20053;-59
2021/04/11 10:46:00;;;;;;;0.90;0.85;;;;;;;-145.19;100.00;59999.88;5002627;28;20072;-60
2021/04/11 10:48:39;;;;;;;5.10;1.20;;;;;;;-145.19;100.00;59999.88;4999163;28;20042;-58
2021/04/11 10:51:29;;;;;;;2.05;1.08;;;;;;;-145.19;100.00;59999.88;5006750;28;20449;-56
2021/04/11 10:54:29;;;;;;;2.67;1.00;;;;;;;-145.19;100.00;59999.88;5006992;28;20042;-58
2021/04/11 10:57:20;;;;;;;1.77;1.10;;;;;;;-145.19;100.00;59999.88;5001560;28;20121;-57
2021/04/11 11:00:18;;;;;;;2.17;1.70;;;;;;;-145.19;100.00;59999.88;5001178;28;20050;-57
2021/04/11 11:03:13;;;;;;;2.05;1.60;;;;;;;-145.19;100.00;59999.88;4995006;28;20124;-54
2021/04/11 11:05:51;;;;;;;5.47;1.50;;;;;;;-145.19;100.00;59999.88;5006771;28;20141;-63
2021/04/11 11:08:32;;;;;;;2.58;1.55;;;;;;;-145.19;100.00;59999.88;5004205;28;20478;-54
2021/04/11 11:11:21;;;;;;;16.58;1.67;;;;;;;-145.19;100.00;59999.88;5003559;28;20045;-57
2021/04/11 11:14:00;;;;;;;2.38;1.77;;;;;;;-145.19;100.00;59999.88;5007354;28;20046;-55
2021/04/11 11:16:40;;;;;;;2.42;1.52;;;;;;;-145.19;100.00;59999.88;5004987;28;20084;-57
2021/04/11 11:19:11;;;;;;;4.90;1.30;;;;;;;-145.19;100.00;59999.88;5019270;28;20082;-56
2021/04/11 11:21:47;;;;;;;1.48;1.38;;;;;;;-145.19;100.00;59999.88;5002840;28;20057;-58
2021/04/11 11:24:37;;;;;;;2.53;1.38;;;;;;;-145.19;100.00;59999.88;5019159;28;20099;-56
2021/04/11 11:27:12;;;;;;;3.35;1.02;;;;;;;-145.19;100.00;59999.88;5003583;28;20056;-57
2021/04/11 11:29:57;;;;;;;1.50;1.20;;;;;;;-145.19;100.00;59999.88;5006782;28;20133;-58
2021/04/11 11:32:33;;;;;;;2.92;1.00;;;;;;;-145.19;100.00;59999.88;5003094;28;20052;-57
2021/04/11 11:35:06;;;;;;;1.38;1.20;;;;;;;-145.19;100.00;59999.88;5006237;28;20074;-58
2021/04/11 11:38:00;;;;;;;1.15;1.00;;;;;;;-145.19;100.00;59999.88;5017326;28;20093;-58
2021/04/11 11:40:39;;;;;;;1.30;1.00;;;;;;;-145.19;100.00;59999.88;5005773;28;20054;-57
2021/04/11 11:43:16;;;;;;;2.10;1.08;;;;;;;-145.19;100.00;59999.88;5003212;28;20052;-57
2021/04/11 11:46:10;;;;;;;2.90;1.10;;;;;;;-145.19;100.00;59999.88;5005360;28;20069;-53
2021/04/11 11:48:40;;;;;;;4.22;1.30;;;;;;;-145.19;100.00;59999.88;5006836;28;20589;-58
2021/04/11 11:51:16;;;;;;;1.20;1.05;;;;;;;-145.19;100.00;59999.88;5002043;28;20474;-58
2021/04/11 11:53:54;;;;;;;1.90;0.95;;;;;;;-145.19;100.00;59999.88;5006660;28;20069;-60
2021/04/11 11:56:29;;;;;;;2.47;1.10;;;;;;;-145.19;100.00;59999.88;5002208;28;20058;-57
2021/04/11 11:59:36;;;;;;;1.77;0.80;;;;;;;-145.19;100.00;59999.88;5003096;28;20069;-60
2021/04/11 12:02:13;;;;;;;1.88;1.00;;;;;;;-145.19;100.00;59999.88;5002966;28;20038;-55